sensor_id;sensor_type;location;lat;lon;timestamp;P1;durP1;ratioP1;P2;durP2;ratioP2
49177;SDS011;35016;55.674;37.468;2023-08-07T00:02:25;11.52;;;4.38;;
49177;SDS011;35016;55.674;37.468;2023-08-07T00:04:52;9.77;;;4.25;;
49177;SDS011;35016;55.674;37.468;2023-08-07T00:07:20;9.60;;;4.25;;
49177;SDS011;35016;55.674;37.468;2023-08-07T00:09:47;8.15;;;4.07;;
49177;SDS011;35016;55.674;37.468;2023-08-07T00:12:14;8.27;;;4.65;;
49177;SDS011;35016;55.674;37.468;2023-08-07T00:14:41;8.90;;;4.07;;
49177;SDS011;35016;55.674;37.468;2023-08-07T00:17:08;8.20;;;3.67;;
49177;SDS011;35016;55.674;37.468;2023-08-07T00:19:35;10.32;;;4.45;;
49177;SDS011;35016;55.674;37.468;2023-08-07T00:22:02;9.88;;;4.60;;
49177;SDS011;35016;55.674;37.468;2023-08-07T00:24:30;8.50;;;4.00;;
49177;SDS011;35016;55.674;37.468;2023-08-07T00:26:57;8.90;;;4.40;;
49177;SDS011;35016;55.674;37.468;2023-08-07T00:29:24;9.25;;;3.92;;
49177;SDS011;35016;55.674;37.468;2023-08-07T00:31:52;8.82;;;4.32;;
49177;SDS011;35016;55.674;37.468;2023-08-07T00:34:19;9.43;;;3.95;;
49177;SDS011;35016;55.674;37.468;2023-08-07T00:36:46;9.13;;;4.57;;
49177;SDS011;35016;55.674;37.468;2023-08-07T00:39:13;8.68;;;4.25;;
49177;SDS011;35016;55.674;37.468;2023-08-07T00:41:40;8.73;;;4.13;;
49177;SDS011;35016;55.674;37.468;2023-08-07T00:44:08;8.88;;;4.78;;
49177;SDS011;35016;55.674;37.468;2023-08-07T00:46:35;8.70;;;4.28;;
49177;SDS011;35016;55.674;37.468;2023-08-07T00:49:03;8.90;;;4.10;;
49177;SDS011;35016;55.674;37.468;2023-08-07T00:51:30;8.27;;;4.07;;
49177;SDS011;35016;55.674;37.468;2023-08-07T00:53:58;10.02;;;4.35;;
49177;SDS011;35016;55.674;37.468;2023-08-07T00:56:27;8.85;;;4.65;;
49177;SDS011;35016;55.674;37.468;2023-08-07T00:58:55;9.07;;;4.60;;
49177;SDS011;35016;55.674;37.468;2023-08-07T01:01:22;9.77;;;4.72;;
49177;SDS011;35016;55.674;37.468;2023-08-07T01:03:50;9.75;;;5.07;;
49177;SDS011;35016;55.674;37.468;2023-08-07T01:06:17;10.80;;;4.75;;
49177;SDS011;35016;55.674;37.468;2023-08-07T01:08:44;11.07;;;4.80;;
49177;SDS011;35016;55.674;37.468;2023-08-07T01:16:29;8.77;;;3.92;;
49177;SDS011;35016;55.674;37.468;2023-08-07T01:19:02;10.02;;;4.45;;
49177;SDS011;35016;55.674;37.468;2023-08-07T01:21:32;9.32;;;4.60;;
49177;SDS011;35016;55.674;37.468;2023-08-07T01:23:59;9.80;;;5.13;;
49177;SDS011;35016;55.674;37.468;2023-08-07T01:26:26;8.93;;;4.50;;
49177;SDS011;35016;55.674;37.468;2023-08-07T01:31:59;8.57;;;4.97;;
49177;SDS011;35016;55.674;37.468;2023-08-07T01:34:31;9.25;;;4.78;;
49177;SDS011;35016;55.674;37.468;2023-08-07T01:37:01;10.18;;;5.25;;
49177;SDS011;35016;55.674;37.468;2023-08-07T01:39:30;9.60;;;4.95;;
49177;SDS011;35016;55.674;37.468;2023-08-07T01:41:59;9.13;;;5.22;;
49177;SDS011;35016;55.674;37.468;2023-08-07T01:44:27;10.00;;;4.45;;
49177;SDS011;35016;55.674;37.468;2023-08-07T01:46:54;11.15;;;5.90;;
49177;SDS011;35016;55.674;37.468;2023-08-07T01:49:21;9.35;;;4.70;;
49177;SDS011;35016;55.674;37.468;2023-08-07T01:51:48;8.63;;;4.47;;
49177;SDS011;35016;55.674;37.468;2023-08-07T01:54:16;8.45;;;4.78;;
49177;SDS011;35016;55.674;37.468;2023-08-07T01:56:43;9.93;;;4.72;;
49177;SDS011;35016;55.674;37.468;2023-08-07T01:59:10;9.27;;;5.63;;
49177;SDS011;35016;55.674;37.468;2023-08-07T02:01:37;9.65;;;5.57;;
49177;SDS011;35016;55.674;37.468;2023-08-07T02:04:04;11.15;;;5.32;;
49177;SDS011;35016;55.674;37.468;2023-08-07T02:06:31;10.23;;;5.35;;
49177;SDS011;35016;55.674;37.468;2023-08-07T02:08:58;8.43;;;4.75;;
49177;SDS011;35016;55.674;37.468;2023-08-07T02:11:25;9.35;;;4.38;;
49177;SDS011;35016;55.674;37.468;2023-08-07T02:13:54;9.05;;;4.97;;
49177;SDS011;35016;55.674;37.468;2023-08-07T02:16:21;11.63;;;4.78;;
49177;SDS011;35016;55.674;37.468;2023-08-07T02:18:49;9.10;;;5.10;;
49177;SDS011;35016;55.674;37.468;2023-08-07T02:21:35;8.68;;;4.18;;
49177;SDS011;35016;55.674;37.468;2023-08-07T02:24:03;11.30;;;4.90;;
49177;SDS011;35016;55.674;37.468;2023-08-07T02:26:30;8.18;;;4.63;;
49177;SDS011;35016;55.674;37.468;2023-08-07T02:28:58;8.90;;;4.03;;
49177;SDS011;35016;55.674;37.468;2023-08-07T02:31:25;8.48;;;4.32;;
49177;SDS011;35016;55.674;37.468;2023-08-07T02:33:53;9.85;;;5.20;;
49177;SDS011;35016;55.674;37.468;2023-08-07T02:36:20;10.35;;;4.53;;
49177;SDS011;35016;55.674;37.468;2023-08-07T02:38:47;11.93;;;5.55;;
49177;SDS011;35016;55.674;37.468;2023-08-07T02:41:14;9.93;;;4.78;;
49177;SDS011;35016;55.674;37.468;2023-08-07T02:43:41;11.45;;;5.78;;
49177;SDS011;35016;55.674;37.468;2023-08-07T02:46:09;10.43;;;6.00;;
49177;SDS011;35016;55.674;37.468;2023-08-07T02:48:37;11.25;;;5.32;;
49177;SDS011;35016;55.674;37.468;2023-08-07T02:51:04;9.63;;;5.22;;
49177;SDS011;35016;55.674;37.468;2023-08-07T02:53:31;11.23;;;5.25;;
49177;SDS011;35016;55.674;37.468;2023-08-07T02:55:58;10.25;;;5.53;;
49177;SDS011;35016;55.674;37.468;2023-08-07T02:58:26;9.70;;;5.10;;
49177;SDS011;35016;55.674;37.468;2023-08-07T03:00:53;10.55;;;4.70;;
49177;SDS011;35016;55.674;37.468;2023-08-07T03:03:20;10.95;;;5.95;;
49177;SDS011;35016;55.674;37.468;2023-08-07T03:05:48;12.48;;;5.22;;
49177;SDS011;35016;55.674;37.468;2023-08-07T03:08:16;10.70;;;5.65;;
49177;SDS011;35016;55.674;37.468;2023-08-07T03:10:53;9.50;;;5.13;;
49177;SDS011;35016;55.674;37.468;2023-08-07T03:13:24;9.43;;;5.25;;
49177;SDS011;35016;55.674;37.468;2023-08-07T03:16:05;9.13;;;5.70;;
49177;SDS011;35016;55.674;37.468;2023-08-07T03:18:33;10.30;;;6.13;;
49177;SDS011;35016;55.674;37.468;2023-08-07T03:21:01;10.45;;;5.03;;
49177;SDS011;35016;55.674;37.468;2023-08-07T03:23:28;10.48;;;5.38;;
49177;SDS011;35016;55.674;37.468;2023-08-07T03:26:05;9.75;;;5.57;;
49177;SDS011;35016;55.674;37.468;2023-08-07T03:28:40;9.38;;;5.45;;
49177;SDS011;35016;55.674;37.468;2023-08-07T03:31:08;8.63;;;5.13;;
49177;SDS011;35016;55.674;37.468;2023-08-07T03:33:36;10.93;;;4.95;;
49177;SDS011;35016;55.674;37.468;2023-08-07T03:36:03;9.05;;;5.22;;
49177;SDS011;35016;55.674;37.468;2023-08-07T03:38:31;10.25;;;4.80;;
49177;SDS011;35016;55.674;37.468;2023-08-07T03:40:59;9.07;;;4.60;;
49177;SDS011;35016;55.674;37.468;2023-08-07T03:43:28;11.07;;;5.45;;
49177;SDS011;35016;55.674;37.468;2023-08-07T03:45:55;10.73;;;5.20;;
49177;SDS011;35016;55.674;37.468;2023-08-07T03:48:29;9.55;;;5.63;;
49177;SDS011;35016;55.674;37.468;2023-08-07T03:51:03;11.98;;;5.90;;
49177;SDS011;35016;55.674;37.468;2023-08-07T03:53:36;9.10;;;4.85;;
49177;SDS011;35016;55.674;37.468;2023-08-07T03:56:04;9.80;;;5.18;;
49177;SDS011;35016;55.674;37.468;2023-08-07T03:58:32;9.30;;;4.05;;
49177;SDS011;35016;55.674;37.468;2023-08-07T04:00:59;8.90;;;4.40;;
49177;SDS011;35016;55.674;37.468;2023-08-07T04:03:27;10.43;;;5.63;;
49177;SDS011;35016;55.674;37.468;2023-08-07T04:05:54;9.35;;;5.07;;
49177;SDS011;35016;55.674;37.468;2023-08-07T04:08:22;7.68;;;3.78;;
49177;SDS011;35016;55.674;37.468;2023-08-07T04:10:59;11.00;;;6.70;;
49177;SDS011;35016;55.674;37.468;2023-08-07T04:13:33;9.95;;;4.43;;
49177;SDS011;35016;55.674;37.468;2023-08-07T04:16:02;10.52;;;5.07;;
49177;SDS011;35016;55.674;37.468;2023-08-07T04:18:34;8.18;;;4.07;;
49177;SDS011;35016;55.674;37.468;2023-08-07T04:21:02;8.27;;;3.75;;
49177;SDS011;35016;55.674;37.468;2023-08-07T04:23:31;8.98;;;4.25;;
49177;SDS011;35016;55.674;37.468;2023-08-07T04:25:58;8.50;;;3.95;;
49177;SDS011;35016;55.674;37.468;2023-08-07T04:28:27;9.05;;;4.00;;
49177;SDS011;35016;55.674;37.468;2023-08-07T04:30:55;9.77;;;4.35;;
49177;SDS011;35016;55.674;37.468;2023-08-07T04:33:22;9.15;;;4.82;;
49177;SDS011;35016;55.674;37.468;2023-08-07T04:35:50;9.60;;;4.60;;
49177;SDS011;35016;55.674;37.468;2023-08-07T04:38:17;8.25;;;3.70;;
49177;SDS011;35016;55.674;37.468;2023-08-07T04:40:47;9.77;;;4.05;;
49177;SDS011;35016;55.674;37.468;2023-08-07T04:43:16;8.82;;;3.75;;
49177;SDS011;35016;55.674;37.468;2023-08-07T04:45:44;8.23;;;4.05;;
49177;SDS011;35016;55.674;37.468;2023-08-07T04:48:14;8.00;;;4.10;;
49177;SDS011;35016;55.674;37.468;2023-08-07T04:50:41;8.95;;;4.18;;
49177;SDS011;35016;55.674;37.468;2023-08-07T04:53:08;6.90;;;3.33;;
49177;SDS011;35016;55.674;37.468;2023-08-07T04:55:35;8.88;;;3.65;;
49177;SDS011;35016;55.674;37.468;2023-08-07T04:58:02;8.70;;;4.28;;
49177;SDS011;35016;55.674;37.468;2023-08-07T05:00:30;9.20;;;3.33;;
49177;SDS011;35016;55.674;37.468;2023-08-07T05:02:57;10.02;;;4.13;;
49177;SDS011;35016;55.674;37.468;2023-08-07T05:05:25;7.22;;;3.50;;
49177;SDS011;35016;55.674;37.468;2023-08-07T05:07:54;9.75;;;3.83;;
49177;SDS011;35016;55.674;37.468;2023-08-07T05:10:21;11.15;;;3.63;;
49177;SDS011;35016;55.674;37.468;2023-08-07T05:12:48;9.05;;;3.40;;
49177;SDS011;35016;55.674;37.468;2023-08-07T05:15:22;10.00;;;4.25;;
49177;SDS011;35016;55.674;37.468;2023-08-07T05:17:50;8.60;;;3.13;;
49177;SDS011;35016;55.674;37.468;2023-08-07T05:20:18;8.43;;;3.88;;
49177;SDS011;35016;55.674;37.468;2023-08-07T05:22:45;8.10;;;3.85;;
49177;SDS011;35016;55.674;37.468;2023-08-07T05:25:12;8.75;;;4.05;;
49177;SDS011;35016;55.674;37.468;2023-08-07T05:27:44;7.70;;;3.92;;
49177;SDS011;35016;55.674;37.468;2023-08-07T05:30:12;10.90;;;4.45;;
49177;SDS011;35016;55.674;37.468;2023-08-07T05:32:40;9.35;;;3.45;;
49177;SDS011;35016;55.674;37.468;2023-08-07T05:35:08;8.38;;;3.40;;
49177;SDS011;35016;55.674;37.468;2023-08-07T05:37:35;7.32;;;3.50;;
49177;SDS011;35016;55.674;37.468;2023-08-07T05:40:03;8.05;;;3.88;;
49177;SDS011;35016;55.674;37.468;2023-08-07T05:42:31;8.18;;;3.63;;
49177;SDS011;35016;55.674;37.468;2023-08-07T05:44:58;7.75;;;3.67;;
49177;SDS011;35016;55.674;37.468;2023-08-07T05:47:25;7.22;;;3.40;;
49177;SDS011;35016;55.674;37.468;2023-08-07T05:49:53;8.10;;;3.20;;
49177;SDS011;35016;55.674;37.468;2023-08-07T05:52:20;8.80;;;3.92;;
49177;SDS011;35016;55.674;37.468;2023-08-07T05:54:47;8.15;;;3.67;;
49177;SDS011;35016;55.674;37.468;2023-08-07T05:57:14;7.70;;;3.40;;
49177;SDS011;35016;55.674;37.468;2023-08-07T05:59:41;8.20;;;3.15;;
49177;SDS011;35016;55.674;37.468;2023-08-07T06:02:09;9.23;;;3.72;;
49177;SDS011;35016;55.674;37.468;2023-08-07T06:04:38;8.90;;;3.20;;
49177;SDS011;35016;55.674;37.468;2023-08-07T06:07:05;7.40;;;3.05;;
49177;SDS011;35016;55.674;37.468;2023-08-07T06:09:34;8.57;;;3.47;;
49177;SDS011;35016;55.674;37.468;2023-08-07T06:12:02;7.53;;;3.13;;
49177;SDS011;35016;55.674;37.468;2023-08-07T06:14:29;7.30;;;3.25;;
49177;SDS011;35016;55.674;37.468;2023-08-07T06:16:56;9.75;;;4.18;;
49177;SDS011;35016;55.674;37.468;2023-08-07T06:19:24;8.38;;;3.25;;
49177;SDS011;35016;55.674;37.468;2023-08-07T06:21:58;9.25;;;3.35;;
49177;SDS011;35016;55.674;37.468;2023-08-07T06:24:25;8.65;;;3.65;;
49177;SDS011;35016;55.674;37.468;2023-08-07T06:26:52;9.30;;;3.80;;
49177;SDS011;35016;55.674;37.468;2023-08-07T06:29:20;7.95;;;3.63;;
49177;SDS011;35016;55.674;37.468;2023-08-07T06:31:47;7.53;;;3.42;;
49177;SDS011;35016;55.674;37.468;2023-08-07T06:34:14;14.43;;;4.53;;
49177;SDS011;35016;55.674;37.468;2023-08-07T06:36:41;7.13;;;3.55;;
49177;SDS011;35016;55.674;37.468;2023-08-07T06:39:08;8.43;;;3.38;;
49177;SDS011;35016;55.674;37.468;2023-08-07T06:41:37;6.93;;;2.90;;
49177;SDS011;35016;55.674;37.468;2023-08-07T06:44:08;13.88;;;3.70;;
49177;SDS011;35016;55.674;37.468;2023-08-07T06:46:35;6.82;;;2.83;;
49177;SDS011;35016;55.674;37.468;2023-08-07T06:49:02;11.43;;;4.47;;
49177;SDS011;35016;55.674;37.468;2023-08-07T06:51:29;13.07;;;3.60;;
49177;SDS011;35016;55.674;37.468;2023-08-07T06:53:56;15.48;;;5.10;;
49177;SDS011;35016;55.674;37.468;2023-08-07T06:56:23;7.32;;;2.90;;
49177;SDS011;35016;55.674;37.468;2023-08-07T06:58:50;10.02;;;3.53;;
49177;SDS011;35016;55.674;37.468;2023-08-07T07:01:17;7.38;;;3.10;;
49177;SDS011;35016;55.674;37.468;2023-08-07T07:03:44;10.25;;;3.97;;
49177;SDS011;35016;55.674;37.468;2023-08-07T07:06:13;9.80;;;3.50;;
49177;SDS011;35016;55.674;37.468;2023-08-07T07:08:41;8.75;;;3.92;;
49177;SDS011;35016;55.674;37.468;2023-08-07T07:11:08;6.53;;;2.72;;
49177;SDS011;35016;55.674;37.468;2023-08-07T07:13:36;11.95;;;4.13;;
49177;SDS011;35016;55.674;37.468;2023-08-07T07:16:03;11.25;;;3.80;;
49177;SDS011;35016;55.674;37.468;2023-08-07T07:18:30;7.15;;;2.92;;
49177;SDS011;35016;55.674;37.468;2023-08-07T07:20:58;11.98;;;4.60;;
49177;SDS011;35016;55.674;37.468;2023-08-07T07:23:26;7.40;;;2.83;;
49177;SDS011;35016;55.674;37.468;2023-08-07T07:25:54;10.40;;;3.85;;
49177;SDS011;35016;55.674;37.468;2023-08-07T07:28:21;8.60;;;3.25;;
49177;SDS011;35016;55.674;37.468;2023-08-07T07:30:49;8.38;;;3.15;;
49177;SDS011;35016;55.674;37.468;2023-08-07T07:33:16;7.68;;;3.47;;
49177;SDS011;35016;55.674;37.468;2023-08-07T07:35:43;7.72;;;3.38;;
49177;SDS011;35016;55.674;37.468;2023-08-07T07:38:10;10.60;;;4.22;;
49177;SDS011;35016;55.674;37.468;2023-08-07T07:40:38;11.50;;;3.83;;
49177;SDS011;35016;55.674;37.468;2023-08-07T07:43:05;13.38;;;4.00;;
49177;SDS011;35016;55.674;37.468;2023-08-07T07:45:32;6.75;;;2.60;;
49177;SDS011;35016;55.674;37.468;2023-08-07T07:48:02;9.90;;;3.28;;
49177;SDS011;35016;55.674;37.468;2023-08-07T07:50:30;11.82;;;3.75;;
49177;SDS011;35016;55.674;37.468;2023-08-07T07:52:57;13.25;;;3.78;;
49177;SDS011;35016;55.674;37.468;2023-08-07T07:55:25;9.57;;;3.90;;
49177;SDS011;35016;55.674;37.468;2023-08-07T07:57:53;8.82;;;2.88;;
49177;SDS011;35016;55.674;37.468;2023-08-07T08:00:21;7.13;;;3.03;;
49177;SDS011;35016;55.674;37.468;2023-08-07T08:02:55;15.15;;;4.13;;
49177;SDS011;35016;55.674;37.468;2023-08-07T08:05:22;12.98;;;3.42;;
49177;SDS011;35016;55.674;37.468;2023-08-07T08:07:49;9.50;;;3.15;;
49177;SDS011;35016;55.674;37.468;2023-08-07T08:10:17;10.73;;;2.80;;
49177;SDS011;35016;55.674;37.468;2023-08-07T08:12:44;7.75;;;2.63;;
49177;SDS011;35016;55.674;37.468;2023-08-07T08:15:11;7.70;;;3.17;;
49177;SDS011;35016;55.674;37.468;2023-08-07T08:17:39;7.68;;;2.70;;
49177;SDS011;35016;55.674;37.468;2023-08-07T08:20:07;8.57;;;3.67;;
49177;SDS011;35016;55.674;37.468;2023-08-07T08:22:35;8.80;;;3.75;;
49177;SDS011;35016;55.674;37.468;2023-08-07T08:25:02;9.02;;;3.85;;
49177;SDS011;35016;55.674;37.468;2023-08-07T08:27:31;7.53;;;3.03;;
49177;SDS011;35016;55.674;37.468;2023-08-07T08:29:58;10.50;;;3.53;;
49177;SDS011;35016;55.674;37.468;2023-08-07T08:32:25;9.18;;;3.90;;
49177;SDS011;35016;55.674;37.468;2023-08-07T08:34:53;6.40;;;2.42;;
49177;SDS011;35016;55.674;37.468;2023-08-07T08:37:20;16.35;;;3.70;;
49177;SDS011;35016;55.674;37.468;2023-08-07T08:39:47;7.20;;;2.92;;
49177;SDS011;35016;55.674;37.468;2023-08-07T08:42:14;9.23;;;2.80;;
49177;SDS011;35016;55.674;37.468;2023-08-07T08:44:42;9.13;;;3.00;;
49177;SDS011;35016;55.674;37.468;2023-08-07T08:47:18;14.65;;;5.53;;
49177;SDS011;35016;55.674;37.468;2023-08-07T08:49:54;7.10;;;2.90;;
49177;SDS011;35016;55.674;37.468;2023-08-07T08:52:33;10.02;;;3.05;;
49177;SDS011;35016;55.674;37.468;2023-08-07T08:55:02;7.07;;;2.72;;
49177;SDS011;35016;55.674;37.468;2023-08-07T08:57:29;8.15;;;3.35;;
49177;SDS011;35016;55.674;37.468;2023-08-07T08:59:57;11.48;;;3.90;;
49177;SDS011;35016;55.674;37.468;2023-08-07T09:02:24;9.27;;;3.03;;
49177;SDS011;35016;55.674;37.468;2023-08-07T09:04:52;11.35;;;5.00;;
49177;SDS011;35016;55.674;37.468;2023-08-07T09:07:19;8.60;;;3.17;;
49177;SDS011;35016;55.674;37.468;2023-08-07T09:09:47;7.68;;;4.07;;
49177;SDS011;35016;55.674;37.468;2023-08-07T09:12:22;7.90;;;3.47;;
49177;SDS011;35016;55.674;37.468;2023-08-07T09:14:53;10.13;;;3.65;;
49177;SDS011;35016;55.674;37.468;2023-08-07T09:17:24;7.40;;;3.78;;
49177;SDS011;35016;55.674;37.468;2023-08-07T09:22:23;8.90;;;2.42;;
49177;SDS011;35016;55.674;37.468;2023-08-07T09:24:50;7.50;;;2.80;;
49177;SDS011;35016;55.674;37.468;2023-08-07T09:27:17;7.57;;;3.17;;
49177;SDS011;35016;55.674;37.468;2023-08-07T09:29:45;6.05;;;2.25;;
49177;SDS011;35016;55.674;37.468;2023-08-07T09:32:13;6.85;;;3.22;;
49177;SDS011;35016;55.674;37.468;2023-08-07T09:34:41;12.18;;;3.22;;
49177;SDS011;35016;55.674;37.468;2023-08-07T09:37:09;7.45;;;3.42;;
49177;SDS011;35016;55.674;37.468;2023-08-07T09:39:36;8.32;;;3.38;;
49177;SDS011;35016;55.674;37.468;2023-08-07T09:42:04;9.00;;;3.35;;
49177;SDS011;35016;55.674;37.468;2023-08-07T09:44:37;8.65;;;2.83;;
49177;SDS011;35016;55.674;37.468;2023-08-07T09:47:22;8.10;;;3.75;;
49177;SDS011;35016;55.674;37.468;2023-08-07T09:49:49;6.90;;;3.00;;
49177;SDS011;35016;55.674;37.468;2023-08-07T09:52:21;6.47;;;2.70;;
49177;SDS011;35016;55.674;37.468;2023-08-07T09:54:48;7.63;;;2.90;;
49177;SDS011;35016;55.674;37.468;2023-08-07T09:57:15;7.28;;;3.28;;
49177;SDS011;35016;55.674;37.468;2023-08-07T09:59:43;6.95;;;2.80;;
49177;SDS011;35016;55.674;37.468;2023-08-07T10:02:16;8.23;;;3.35;;
49177;SDS011;35016;55.674;37.468;2023-08-07T10:04:45;8.45;;;3.00;;
49177;SDS011;35016;55.674;37.468;2023-08-07T10:07:12;8.85;;;2.85;;
49177;SDS011;35016;55.674;37.468;2023-08-07T10:09:42;7.63;;;3.30;;
49177;SDS011;35016;55.674;37.468;2023-08-07T10:12:09;7.82;;;2.90;;
49177;SDS011;35016;55.674;37.468;2023-08-07T10:14:36;7.10;;;3.05;;
49177;SDS011;35016;55.674;37.468;2023-08-07T10:17:04;8.07;;;3.20;;
49177;SDS011;35016;55.674;37.468;2023-08-07T10:19:32;7.45;;;2.67;;
49177;SDS011;35016;55.674;37.468;2023-08-07T10:21:59;7.47;;;3.13;;
49177;SDS011;35016;55.674;37.468;2023-08-07T10:24:26;7.20;;;2.75;;
49177;SDS011;35016;55.674;37.468;2023-08-07T10:26:55;8.00;;;2.90;;
49177;SDS011;35016;55.674;37.468;2023-08-07T10:29:24;9.38;;;3.35;;
49177;SDS011;35016;55.674;37.468;2023-08-07T10:31:53;8.10;;;3.08;;
49177;SDS011;35016;55.674;37.468;2023-08-07T10:34:23;7.72;;;3.47;;
49177;SDS011;35016;55.674;37.468;2023-08-07T10:36:50;7.40;;;3.20;;
49177;SDS011;35016;55.674;37.468;2023-08-07T10:39:17;7.57;;;2.50;;
49177;SDS011;35016;55.674;37.468;2023-08-07T10:41:45;5.60;;;2.60;;
49177;SDS011;35016;55.674;37.468;2023-08-07T10:44:17;9.32;;;3.17;;
49177;SDS011;35016;55.674;37.468;2023-08-07T10:46:49;7.65;;;2.88;;
49177;SDS011;35016;55.674;37.468;2023-08-07T10:49:38;7.68;;;2.92;;
49177;SDS011;35016;55.674;37.468;2023-08-07T10:52:11;6.38;;;2.90;;
49177;SDS011;35016;55.674;37.468;2023-08-07T10:54:40;8.23;;;2.95;;
49177;SDS011;35016;55.674;37.468;2023-08-07T10:57:17;8.38;;;3.42;;
49177;SDS011;35016;55.674;37.468;2023-08-07T11:02:29;8.00;;;3.50;;
49177;SDS011;35016;55.674;37.468;2023-08-07T11:04:57;7.03;;;3.55;;
49177;SDS011;35016;55.674;37.468;2023-08-07T11:07:28;9.75;;;3.15;;
49177;SDS011;35016;55.674;37.468;2023-08-07T11:09:57;9.73;;;3.10;;
49177;SDS011;35016;55.674;37.468;2023-08-07T11:12:28;9.48;;;3.30;;
49177;SDS011;35016;55.674;37.468;2023-08-07T11:14:55;7.30;;;3.50;;
49177;SDS011;35016;55.674;37.468;2023-08-07T11:17:27;7.53;;;3.00;;
49177;SDS011;35016;55.674;37.468;2023-08-07T11:19:55;6.93;;;2.90;;
49177;SDS011;35016;55.674;37.468;2023-08-07T11:22:23;10.23;;;3.58;;
49177;SDS011;35016;55.674;37.468;2023-08-07T11:24:50;7.18;;;3.28;;
49177;SDS011;35016;55.674;37.468;2023-08-07T11:27:18;7.68;;;2.70;;
49177;SDS011;35016;55.674;37.468;2023-08-07T11:29:47;9.10;;;3.63;;
49177;SDS011;35016;55.674;37.468;2023-08-07T11:32:16;7.78;;;3.58;;
49177;SDS011;35016;55.674;37.468;2023-08-07T11:34:49;8.75;;;3.20;;
49177;SDS011;35016;55.674;37.468;2023-08-07T11:37:17;7.88;;;3.00;;
49177;SDS011;35016;55.674;37.468;2023-08-07T11:39:44;11.23;;;4.03;;
49177;SDS011;35016;55.674;37.468;2023-08-07T11:42:12;10.10;;;4.13;;
49177;SDS011;35016;55.674;37.468;2023-08-07T11:44:40;7.78;;;3.33;;
49177;SDS011;35016;55.674;37.468;2023-08-07T11:47:07;11.27;;;4.75;;
49177;SDS011;35016;55.674;37.468;2023-08-07T11:49:36;8.55;;;3.25;;
49177;SDS011;35016;55.674;37.468;2023-08-07T11:52:06;6.70;;;3.20;;
49177;SDS011;35016;55.674;37.468;2023-08-07T11:54:34;8.38;;;3.38;;
49177;SDS011;35016;55.674;37.468;2023-08-07T11:57:01;7.53;;;3.28;;
49177;SDS011;35016;55.674;37.468;2023-08-07T11:59:29;9.95;;;3.60;;
49177;SDS011;35016;55.674;37.468;2023-08-07T12:01:56;7.50;;;3.50;;
49177;SDS011;35016;55.674;37.468;2023-08-07T12:04:24;7.28;;;3.47;;
49177;SDS011;35016;55.674;37.468;2023-08-07T12:06:54;8.13;;;3.85;;
49177;SDS011;35016;55.674;37.468;2023-08-07T12:09:25;6.63;;;3.05;;
49177;SDS011;35016;55.674;37.468;2023-08-07T12:11:56;9.32;;;3.65;;
49177;SDS011;35016;55.674;37.468;2023-08-07T12:14:28;9.13;;;3.72;;
49177;SDS011;35016;55.674;37.468;2023-08-07T12:17:02;8.82;;;3.05;;
49177;SDS011;35016;55.674;37.468;2023-08-07T12:19:37;9.82;;;4.03;;
49177;SDS011;35016;55.674;37.468;2023-08-07T12:22:09;8.52;;;3.00;;
49177;SDS011;35016;55.674;37.468;2023-08-07T12:24:41;7.90;;;3.28;;
49177;SDS011;35016;55.674;37.468;2023-08-07T12:27:09;8.30;;;3.28;;
49177;SDS011;35016;55.674;37.468;2023-08-07T12:29:36;10.20;;;3.80;;
49177;SDS011;35016;55.674;37.468;2023-08-07T12:32:06;8.48;;;3.72;;
49177;SDS011;35016;55.674;37.468;2023-08-07T12:34:33;8.40;;;3.58;;
49177;SDS011;35016;55.674;37.468;2023-08-07T12:37:20;8.45;;;3.65;;
49177;SDS011;35016;55.674;37.468;2023-08-07T12:39:49;8.20;;;4.03;;
49177;SDS011;35016;55.674;37.468;2023-08-07T12:42:19;8.52;;;3.65;;
49177;SDS011;35016;55.674;37.468;2023-08-07T12:44:49;7.78;;;3.22;;
49177;SDS011;35016;55.674;37.468;2023-08-07T12:47:16;8.93;;;3.70;;
49177;SDS011;35016;55.674;37.468;2023-08-07T12:49:43;8.48;;;3.50;;
49177;SDS011;35016;55.674;37.468;2023-08-07T12:52:14;8.65;;;3.17;;
49177;SDS011;35016;55.674;37.468;2023-08-07T12:58:56;7.72;;;3.20;;
49177;SDS011;35016;55.674;37.468;2023-08-07T13:01:23;6.93;;;3.00;;
49177;SDS011;35016;55.674;37.468;2023-08-07T13:03:52;6.82;;;2.85;;
49177;SDS011;35016;55.674;37.468;2023-08-07T13:06:19;7.60;;;3.30;;
49177;SDS011;35016;55.674;37.468;2023-08-07T13:08:47;7.60;;;3.00;;
49177;SDS011;35016;55.674;37.468;2023-08-07T13:11:14;9.75;;;3.47;;
49177;SDS011;35016;55.674;37.468;2023-08-07T13:13:41;9.05;;;3.53;;
49177;SDS011;35016;55.674;37.468;2023-08-07T13:16:11;7.30;;;3.40;;
49177;SDS011;35016;55.674;37.468;2023-08-07T13:18:38;8.63;;;3.30;;
49177;SDS011;35016;55.674;37.468;2023-08-07T13:21:05;8.65;;;3.42;;
49177;SDS011;35016;55.674;37.468;2023-08-07T13:23:32;8.13;;;3.85;;
49177;SDS011;35016;55.674;37.468;2023-08-07T13:26:02;7.13;;;3.25;;
49177;SDS011;35016;55.674;37.468;2023-08-07T13:28:29;7.45;;;3.40;;
49177;SDS011;35016;55.674;37.468;2023-08-07T13:30:58;6.40;;;3.00;;
49177;SDS011;35016;55.674;37.468;2023-08-07T13:33:30;9.25;;;3.33;;
49177;SDS011;35016;55.674;37.468;2023-08-07T13:35:57;6.93;;;2.88;;
49177;SDS011;35016;55.674;37.468;2023-08-07T13:38:27;7.50;;;3.05;;
49177;SDS011;35016;55.674;37.468;2023-08-07T13:40:54;7.38;;;2.70;;
49177;SDS011;35016;55.674;37.468;2023-08-07T13:43:22;10.60;;;3.22;;
49177;SDS011;35016;55.674;37.468;2023-08-07T13:45:49;8.77;;;3.20;;
49177;SDS011;35016;55.674;37.468;2023-08-07T13:48:20;9.57;;;3.67;;
49177;SDS011;35016;55.674;37.468;2023-08-07T13:50:48;6.57;;;2.55;;
49177;SDS011;35016;55.674;37.468;2023-08-07T13:53:15;7.90;;;2.95;;
49177;SDS011;35016;55.674;37.468;2023-08-07T13:55:43;7.75;;;3.55;;
49177;SDS011;35016;55.674;37.468;2023-08-07T13:58:10;10.52;;;3.17;;
49177;SDS011;35016;55.674;37.468;2023-08-07T14:00:38;9.40;;;4.00;;
49177;SDS011;35016;55.674;37.468;2023-08-07T14:03:10;8.73;;;3.50;;
49177;SDS011;35016;55.674;37.468;2023-08-07T14:05:39;8.23;;;3.42;;
49177;SDS011;35016;55.674;37.468;2023-08-07T14:08:07;10.70;;;3.70;;
49177;SDS011;35016;55.674;37.468;2023-08-07T14:10:40;8.20;;;3.03;;
49177;SDS011;35016;55.674;37.468;2023-08-07T14:13:10;8.45;;;3.20;;
49177;SDS011;35016;55.674;37.468;2023-08-07T14:15:38;10.75;;;3.58;;
49177;SDS011;35016;55.674;37.468;2023-08-07T14:20:59;7.22;;;2.92;;
49177;SDS011;35016;55.674;37.468;2023-08-07T14:23:46;7.30;;;2.88;;
49177;SDS011;35016;55.674;37.468;2023-08-07T14:26:14;11.00;;;3.28;;
49177;SDS011;35016;55.674;37.468;2023-08-07T14:28:43;8.55;;;3.10;;
49177;SDS011;35016;55.674;37.468;2023-08-07T14:31:11;8.55;;;3.53;;
49177;SDS011;35016;55.674;37.468;2023-08-07T14:33:39;6.80;;;3.47;;
49177;SDS011;35016;55.674;37.468;2023-08-07T14:36:06;7.85;;;3.17;;
49177;SDS011;35016;55.674;37.468;2023-08-07T14:38:33;10.18;;;3.83;;
49177;SDS011;35016;55.674;37.468;2023-08-07T14:41:03;9.82;;;3.13;;
49177;SDS011;35016;55.674;37.468;2023-08-07T14:43:30;8.43;;;3.05;;
49177;SDS011;35016;55.674;37.468;2023-08-07T14:45:58;8.20;;;3.30;;
49177;SDS011;35016;55.674;37.468;2023-08-07T14:48:25;8.68;;;3.15;;
49177;SDS011;35016;55.674;37.468;2023-08-07T14:50:52;8.38;;;3.92;;
49177;SDS011;35016;55.674;37.468;2023-08-07T14:53:20;8.13;;;3.88;;
49177;SDS011;35016;55.674;37.468;2023-08-07T14:55:47;7.38;;;3.10;;
49177;SDS011;35016;55.674;37.468;2023-08-07T14:58:14;9.07;;;3.45;;
49177;SDS011;35016;55.674;37.468;2023-08-07T15:00:41;6.82;;;2.63;;